Time;durP1;ratioP1;P1;durP2;ratioP2;P2;SDS_P1;SDS_P2;PMS_P1;PMS_P2;Temp;Humidity;BMP_temperature;BMP_pressure;BME280_temperature;BME280_humidity;BME280_pressure;Samples;Min_cycle;Max_cycle;Signal;HPM_P1;HPM_P2
2021/07/31 00:10:11;;;;;;;5.75;2.78;;;;;;;21.25;55.70;99276.66;2190178;40;20056;-86
2021/07/31 00:11:42;;;;;;;5.25;2.75;;;;;;;21.22;55.63;99272.53;2191821;40;20624;-87
2021/07/31 00:13:14;;;;;;;6.90;2.42;;;;;;;21.23;55.77;99273.34;2195622;40;20039;-87
2021/07/31 00:14:46;;;;;;;5.22;2.45;;;;;;;21.26;55.96;99267.44;2197855;40;20090;-85
2021/07/31 00:16:18;;;;;;;7.30;2.80;;;;;;;21.23;55.74;99270.63;2196889;40;20042;-87
2021/07/31 00:17:48;;;;;;;4.22;2.30;;;;;;;21.21;55.65;99275.50;2197025;40;20034;-86
2021/07/31 00:19:20;;;;;;;7.03;2.65;;;;;;;21.15;55.86;99269.91;2197189;40;20039;-84
2021/07/31 00:20:52;;;;;;;8.07;2.28;;;;;;;21.11;56.00;99270.63;2196917;40;20027;-84
2021/07/31 00:22:24;;;;;;;7.72;2.28;;;;;;;21.10;55.97;99274.38;2195641;40;20027;-85
2021/07/31 00:23:54;;;;;;;5.22;2.78;;;;;;;21.04;55.95;99282.44;2196358;40;20043;-85
2021/07/31 00:25:28;;;;;;;7.80;2.80;;;;;;;21.01;56.66;99280.16;2195795;40;20015;-85
2021/07/31 00:26:59;;;;;;;5.65;2.58;;;;;;;20.97;56.93;99280.84;2190064;40;20032;-83
2021/07/31 00:28:30;;;;;;;5.55;2.42;;;;;;;20.98;56.90;99283.34;2190213;40;20063;-86
2021/07/31 00:30:02;;;;;;;5.25;2.53;;;;;;;20.99;56.91;99284.19;2194702;40;20042;-86
2021/07/31 00:31:34;;;;;;;4.40;2.40;;;;;;;20.95;57.12;99282.97;2195623;40;20039;-86
2021/07/31 00:33:05;;;;;;;4.05;2.22;;;;;;;20.89;57.20;99276.56;2197060;40;20035;-86
2021/07/31 00:34:36;;;;;;;5.70;2.20;;;;;;;20.86;57.42;99286.03;2195667;40;20095;-85
2021/07/31 00:36:08;;;;;;;5.07;2.28;;;;;;;20.84;57.31;99284.59;2190567;40;20046;-85
2021/07/31 00:37:39;;;;;;;4.60;2.35;;;;;;;20.84;57.52;99285.41;2189359;40;20044;-86
2021/07/31 00:39:11;;;;;;;4.93;2.22;;;;;;;20.81;57.42;99290.47;2194762;40;20035;-86
2021/07/31 00:40:44;;;;;;;5.93;2.47;;;;;;;20.76;57.61;99284.94;2196573;40;20058;-85
2021/07/31 00:42:14;;;;;;;4.93;2.38;;;;;;;20.72;57.82;99279.91;2189108;40;20040;-84
2021/07/31 00:43:46;;;;;;;5.30;1.80;;;;;;;20.72;57.91;99289.97;2189023;40;20223;-85
2021/07/31 00:45:17;;;;;;;4.03;2.00;;;;;;;20.71;57.73;99288.31;2193396;40;20059;-86
2021/07/31 00:46:49;;;;;;;4.15;2.13;;;;;;;20.67;57.77;99282.50;2189791;40;20030;-85
2021/07/31 00:48:21;;;;;;;6.00;2.17;;;;;;;20.64;57.85;99287.56;2190996;40;20055;-85
2021/07/31 00:49:53;;;;;;;4.35;2.00;;;;;;;20.60;57.88;99297.22;2189841;40;20594;-84
2021/07/31 00:51:24;;;;;;;5.70;2.60;;;;;;;20.55;58.03;99285.16;2190145;40;20031;-85
2021/07/31 00:52:56;;;;;;;7.53;2.70;;;;;;;20.57;57.93;99284.94;2189345;40;20039;-86
2021/07/31 00:54:29;;;;;;;5.18;1.75;;;;;;;20.51;58.25;99285.84;2192289;40;20038;-85
2021/07/31 00:56:02;;;;;;;4.05;2.08;;;;;;;20.49;57.98;99280.66;2196583;40;20307;-85
2021/07/31 00:57:35;;;;;;;5.40;2.28;;;;;;;20.49;58.02;99279.81;2196892;40;20032;-85
2021/07/31 00:59:07;;;;;;;4.25;2.58;;;;;;;20.52;58.16;99279.34;2189779;40;20075;-85
2021/07/31 01:00:39;;;;;;;6.05;3.00;;;;;;;20.51;57.85;99286.69;2189404;40;20032;-85
2021/07/31 01:02:10;;;;;;;3.80;2.00;;;;;;;20.46;57.94;99291.13;2189987;40;20188;-87
2021/07/31 01:03:42;;;;;;;5.35;2.53;;;;;;;20.38;57.94;99290.41;2190372;40;20048;-85
2021/07/31 01:27:21;;;;;;;4.38;2.25;;;;;;;20.00;58.95;99302.31;2194873;40;20039;-86
2021/07/31 01:28:52;;;;;;;4.53;2.53;;;;;;;19.97;59.22;99302.75;2196972;40;20061;-86
2021/07/31 01:30:23;;;;;;;5.10;2.42;;;;;;;19.98;58.96;99301.69;2197265;40;20027;-85
2021/07/31 01:31:54;;;;;;;6.25;2.38;;;;;;;20.00;58.96;99302.31;2197134;40;20051;-84
2021/07/31 01:33:26;;;;;;;5.10;2.15;;;;;;;19.97;59.11;99305.47;2195800;40;20043;-84
2021/07/31 01:34:58;;;;;;;5.35;2.20;;;;;;;19.94;59.18;99312.16;2195875;40;20047;-84
2021/07/31 01:36:29;;;;;;;4.00;2.20;;;;;;;19.95;59.31;99305.69;2195699;40;20039;-84
2021/07/31 01:38:02;;;;;;;6.20;2.58;;;;;;;19.94;59.41;99304.03;2187832;40;20040;-86
2021/07/31 01:39:36;;;;;;;4.07;1.80;;;;;;;19.92;59.59;99308.84;2189399;40;20043;-84
2021/07/31 01:41:08;;;;;;;6.22;2.30;;;;;;;19.90;59.27;99310.13;2192319;40;20039;-85
2021/07/31 01:42:42;;;;;;;4.00;1.88;;;;;;;19.89;59.36;99311.19;2194913;40;20035;-84
2021/07/31 01:44:14;;;;;;;4.43;1.95;;;;;;;19.88;59.30;99314.94;2190164;40;20055;-85
2021/07/31 01:45:45;;;;;;;4.65;2.00;;;;;;;19.89;59.16;99314.72;2189629;40;20059;-84
2021/07/31 01:47:17;;;;;;;4.60;2.22;;;;;;;19.94;59.02;99319.47;2189212;40;20032;-86
2021/07/31 01:48:48;;;;;;;6.50;2.45;;;;;;;19.97;58.79;99315.50;2189687;40;20046;-85
2021/07/31 01:50:20;;;;;;;4.32;2.00;;;;;;;19.96;58.79;99309.22;2189852;40;20054;-84
2021/07/31 01:51:52;;;;;;;4.93;1.70;;;;;;;19.93;58.58;99309.69;2191826;40;21537;-83
2021/07/31 01:53:23;;;;;;;3.92;1.60;;;;;;;19.91;58.33;99311.78;2191108;40;20031;-83
2021/07/31 01:54:54;;;;;;;5.03;2.13;;;;;;;19.88;58.32;99313.06;2191371;40;20044;-87
2021/07/31 01:56:26;;;;;;;5.10;1.90;;;;;;;19.86;58.35;99304.31;2190667;40;20030;-85
2021/07/31 01:57:59;;;;;;;5.15;1.70;;;;;;;19.83;58.39;99309.34;2191621;40;20040;-86
2021/07/31 01:59:31;;;;;;;5.88;1.77;;;;;;;19.84;58.38;99311.00;2191046;40;20157;-85
2021/07/31 02:01:02;;;;;;;4.40;1.70;;;;;;;19.87;58.10;99308.69;2191801;40;20028;-84
2021/07/31 02:02:35;;;;;;;5.97;2.35;;;;;;;19.90;57.90;99316.38;2197077;40;20049;-84
2021/07/31 02:04:08;;;;;;;4.05;1.80;;;;;;;19.86;57.99;99320.59;2196961;40;20040;-85
2021/07/31 02:05:39;;;;;;;5.15;1.60;;;;;;;19.80;58.08;99316.88;2190823;40;20036;-86
2021/07/31 02:07:10;;;;;;;4.75;1.70;;;;;;;19.73;58.07;99310.69;2191515;40;20032;-85
2021/07/31 02:08:41;;;;;;;5.60;1.60;;;;;;;19.68;58.20;99324.06;2192523;40;20097;-87
2021/07/31 02:10:13;;;;;;;4.00;1.90;;;;;;;19.61;58.33;99323.28;2192147;40;20032;-87
2021/07/31 02:11:45;;;;;;;4.88;2.25;;;;;;;19.56;58.36;99315.81;2198137;40;20027;-87
2021/07/31 02:13:17;;;;;;;4.03;1.60;;;;;;;19.49;58.47;99318.59;2197910;40;20039;-86
2021/07/31 02:14:49;;;;;;;4.32;2.00;;;;;;;19.46;58.90;99318.19;2198407;40;20031;-88
2021/07/31 02:16:24;;;;;;;3.83;1.83;;;;;;;19.40;59.02;99311.78;2198189;40;20043;-88
2021/07/31 02:17:56;;;;;;;6.65;1.80;;;;;;;19.40;58.72;99322.63;2198170;40;20036;-86
2021/07/31 02:19:30;;;;;;;6.43;2.00;;;;;;;19.42;58.88;99314.25;2197922;40;20145;-86
2021/07/31 02:21:02;;;;;;;5.88;2.03;;;;;;;19.39;58.61;99318.25;2198229;40;20446;-84
2021/07/31 02:22:33;;;;;;;6.57;2.00;;;;;;;19.30;58.96;99315.00;2198156;40;20035;-87
2021/07/31 02:24:05;;;;;;;7.05;2.13;;;;;;;19.28;59.28;99313.53;2197903;40;21241;-87
2021/07/31 02:25:39;;;;;;;5.78;2.38;;;;;;;19.26;59.01;99321.06;2192141;40;20040;-86
2021/07/31 02:27:09;;;;;;;9.20;2.30;;;;;;;19.26;59.04;99319.19;2191366;40;20107;-86
2021/07/31 02:28:43;;;;;;;7.32;2.47;;;;;;;19.22;59.14;99317.13;2192029;40;20463;-88
2021/07/31 02:30:15;;;;;;;8.20;2.10;;;;;;;19.15;59.68;99314.47;2192134;40;20027;-86
2021/07/31 02:31:46;;;;;;;4.63;1.67;;;;;;;19.09;59.65;99318.88;2192185;40;20507;-89
2021/07/31 02:33:18;;;;;;;5.50;2.13;;;;;;;19.08;59.80;99319.91;2192275;40;20059;-86
2021/07/31 02:34:49;;;;;;;6.97;2.35;;;;;;;19.06;59.66;99310.34;2192130;40;20439;-86
2021/07/31 02:36:21;;;;;;;8.23;2.55;;;;;;;19.04;59.54;99321.41;2191989;40;20330;-86
2021/07/31 02:37:52;;;;;;;5.22;2.08;;;;;;;19.06;59.58;99322.03;2191879;40;20051;-84
2021/07/31 02:39:24;;;;;;;7.18;2.22;;;;;;;19.05;59.39;99320.38;2192250;40;20032;-85
2021/07/31 02:40:54;;;;;;;4.45;1.80;;;;;;;19.00;59.44;99322.88;2190833;40;20420;-83
2021/07/31 02:42:26;;;;;;;4.82;2.00;;;;;;;18.98;59.56;99320.41;2188134;40;20043;-80
2021/07/31 02:43:59;;;;;;;3.65;1.80;;;;;;;18.97;59.34;99312.50;2188917;40;20047;-79
2021/07/31 02:45:31;;;;;;;3.63;1.60;;;;;;;18.96;59.12;99313.56;2189276;40;20047;-79
2021/07/31 02:47:03;;;;;;;7.13;1.95;;;;;;;18.93;59.30;99306.72;2189497;40;20039;-79
2021/07/31 02:48:36;;;;;;;5.28;1.40;;;;;;;18.91;59.00;99316.88;2188893;40;20059;-79
2021/07/31 02:50:09;;;;;;;5.25;1.80;;;;;;;18.92;58.91;99315.00;2189194;40;20070;-80
2021/07/31 02:51:41;;;;;;;7.43;2.20;;;;;;;18.91;59.26;99324.16;2190129;40;20027;-79
2021/07/31 02:53:12;;;;;;;5.65;1.40;;;;;;;18.90;59.03;99314.38;2188500;40;20054;-80
2021/07/31 02:54:43;;;;;;;5.60;1.60;;;;;;;18.90;58.98;99317.94;2192502;40;20067;-80
2021/07/31 02:56:15;;;;;;;6.25;1.88;;;;;;;18.90;59.04;99317.94;2190095;40;20045;-80
2021/07/31 02:57:47;;;;;;;5.10;1.77;;;;;;;18.91;58.90;99314.19;2190457;40;20035;-79
2021/07/31 02:59:19;;;;;;;3.67;1.70;;;;;;;18.94;58.79;99308.34;2188674;40;20054;-80
2021/07/31 03:00:51;;;;;;;6.22;1.80;;;;;;;19.00;58.64;99306.63;2187934;40;20051;-81
2021/07/31 03:02:24;;;;;;;6.03;2.22;;;;;;;19.06;58.19;99304.94;2189972;40;20040;-81
2021/07/31 03:03:56;;;;;;;5.40;1.80;;;;;;;19.03;57.78;99306.22;2187724;40;20028;-79
2021/07/31 03:05:27;;;;;;;5.75;1.75;;;;;;;19.04;57.99;99310.59;2190435;40;20058;-78
2021/07/31 03:06:58;;;;;;;4.38;1.55;;;;;;;19.00;57.80;99303.94;2190832;40;20245;-79
2021/07/31 03:08:30;;;;;;;6.25;1.60;;;;;;;18.98;57.45;99301.44;2189749;40;20023;-80
2021/07/31 03:10:02;;;;;;;5.05;1.60;;;;;;;18.97;57.72;99302.50;2188420;40;20418;-78
2021/07/31 03:11:33;;;;;;;9.13;1.63;;;;;;;18.95;57.28;99309.19;2188508;40;20238;-80
2021/07/31 03:13:05;;;;;;;5.93;1.52;;;;;;;18.94;57.27;99310.22;2188348;40;20435;-79
2021/07/31 03:14:38;;;;;;;4.90;1.67;;;;;;;18.90;57.59;99312.50;2190263;40;20031;-80
2021/07/31 03:16:10;;;;;;;6.70;1.50;;;;;;;18.86;57.48;99308.56;2188543;40;20297;-79
2021/07/31 03:17:41;;;;;;;3.78;1.55;;;;;;;18.84;57.43;99311.50;2188533;40;20055;-78
2021/07/31 03:19:12;;;;;;;6.50;1.55;;;;;;;18.78;57.69;99306.97;2188181;40;20063;-80
2021/07/31 03:20:48;;;;;;;6.00;1.70;;;;;;;18.73;57.83;99306.78;2187772;40;20039;-79
2021/07/31 03:22:20;;;;;;;6.13;1.70;;;;;;;18.67;57.94;99304.94;2186827;40;20039;-79
2021/07/31 03:23:52;;;;;;;7.70;1.65;;;;;;;18.63;58.25;99311.81;2189670;40;20309;-79
2021/07/31 03:25:23;;;;;;;5.35;1.60;;;;;;;18.57;58.06;99308.09;2189688;40;20408;-79
2021/07/31 03:26:55;;;;;;;3.90;1.50;;;;;;;18.53;58.43;99306.88;2188608;40;20445;-80
2021/07/31 03:28:27;;;;;;;4.13;1.40;;;;;;;18.44;58.78;99308.16;2190865;40;20058;-79
2021/07/31 03:30:00;;;;;;;7.30;1.50;;;;;;;18.42;58.61;99311.06;2188563;40;20055;-79
2021/07/31 03:31:32;;;;;;;6.57;1.33;;;;;;;18.40;58.68;99305.06;2189008;40;20430;-80
2021/07/31 03:33:03;;;;;;;4.82;1.73;;;;;;;18.36;58.29;99307.38;2190186;40;20032;-78
2021/07/31 03:34:35;;;;;;;5.68;1.70;;;;;;;18.34;58.28;99309.44;2190930;40;20059;-79
2021/07/31 03:36:07;;;;;;;4.30;1.60;;;;;;;18.35;58.35;99311.13;2190642;40;20055;-79
2021/07/31 03:37:38;;;;;;;5.25;1.42;;;;;;;18.37;58.28;99305.47;2188687;40;20043;-79
2021/07/31 03:39:10;;;;;;;3.88;1.38;;;;;;;18.36;58.34;99310.06;2189785;40;20031;-80
2021/07/31 03:40:42;;;;;;;6.63;1.90;;;;;;;18.38;58.07;99307.16;2191779;40;20054;-80
2021/07/31 03:42:14;;;;;;;5.10;1.50;;;;;;;18.38;57.97;99312.56;2191002;40;20062;-80
2021/07/31 03:43:44;;;;;;;4.05;1.40;;;;;;;18.38;57.90;99309.84;2195467;40;20036;-79
2021/07/31 03:45:18;;;;;;;3.67;1.50;;;;;;;18.35;57.75;99318.38;2190395;40;20408;-80
2021/07/31 03:46:49;;;;;;;4.53;1.40;;;;;;;18.32;57.75;99316.94;2186987;40;20494;-79
2021/07/31 03:48:21;;;;;;;5.22;1.95;;;;;;;18.28;57.73;99313.00;2183079;40;20502;-79
2021/07/31 03:49:53;;;;;;;7.60;1.50;;;;;;;18.26;57.82;99314.25;2185189;40;20349;-79
2021/07/31 03:51:25;;;;;;;10.85;1.77;;;;;;;18.21;58.04;99323.84;2183565;40;20063;-79
2021/07/31 03:52:55;;;;;;;5.15;1.60;;;;;;;18.18;58.19;99326.97;2184856;40;20059;-80
2021/07/31 03:54:27;;;;;;;6.57;1.48;;;;;;;18.12;58.60;99319.72;2182848;40;20301;-79
2021/07/31 03:55:59;;;;;;;3.65;1.40;;;;;;;18.09;58.67;99320.13;2184464;40;20308;-80
2021/07/31 03:57:31;;;;;;;7.22;1.52;;;;;;;18.05;58.30;99317.03;2184653;40;20055;-80
2021/07/31 03:59:02;;;;;;;8.65;2.70;;;;;;;18.03;58.55;99315.59;2182371;40;20055;-79
2021/07/31 04:00:36;;;;;;;8.07;1.80;;;;;;;18.01;58.21;99320.38;2185679;40;20032;-80
2021/07/31 04:02:07;;;;;;;5.13;1.50;;;;;;;18.00;58.30;99318.69;2186504;40;20428;-80
2021/07/31 04:03:39;;;;;;;8.02;1.65;;;;;;;17.99;58.37;99314.31;2187962;40;20036;-80
2021/07/31 04:05:11;;;;;;;6.90;1.63;;;;;;;17.98;57.98;99313.50;2186950;40;20047;-79
2021/07/31 04:06:42;;;;;;;6.35;1.48;;;;;;;18.00;58.17;99313.28;2189313;40;20373;-80
2021/07/31 04:08:14;;;;;;;4.55;1.70;;;;;;;17.99;58.05;99308.91;2186472;40;20039;-80
2021/07/31 04:09:46;;;;;;;6.65;1.50;;;;;;;18.00;57.95;99314.09;2183366;40;20106;-79
2021/07/31 04:11:16;;;;;;;7.72;1.40;;;;;;;17.99;58.10;99317.03;2183354;40;20059;-79
2021/07/31 04:12:48;;;;;;;4.88;1.38;;;;;;;17.99;57.96;99319.72;2184406;40;20028;-79
2021/07/31 04:14:20;;;;;;;7.75;1.60;;;;;;;18.03;57.78;99315.59;2184318;40;20333;-80
2021/07/31 04:15:53;;;;;;;4.38;1.50;;;;;;;18.01;57.63;99323.06;2186924;40;20059;-79
2021/07/31 04:17:25;;;;;;;3.97;1.42;;;;;;;17.98;57.59;99321.63;2184140;40;20062;-80
2021/07/31 04:18:57;;;;;;;3.17;1.00;;;;;;;17.97;57.39;99322.66;2185817;40;20424;-80
2021/07/31 04:20:28;;;;;;;5.70;1.40;;;;;;;17.99;57.15;99323.28;2182433;40;20056;-79
2021/07/31 04:21:59;;;;;;;5.88;1.48;;;;;;;17.98;57.32;99324.31;2182490;40;20056;-80
2021/07/31 04:23:31;;;;;;;3.35;1.20;;;;;;;17.97;57.24;99332.63;2182260;40;20057;-80
2021/07/31 04:25:03;;;;;;;5.43;1.55;;;;;;;17.98;57.29;99327.03;2185705;40;20039;-80
2021/07/31 04:26:34;;;;;;;5.55;1.50;;;;;;;18.00;57.37;99329.50;2184861;40;20054;-79
2021/07/31 04:28:06;;;;;;;5.65;1.70;;;;;;;18.02;57.36;99327.44;2183853;40;20062;-78
2021/07/31 04:29:38;;;;;;;6.45;1.40;;;;;;;18.01;57.42;99331.19;2181893;40;20443;-79
2021/07/31 04:31:12;;;;;;;6.25;1.60;;;;;;;17.99;57.38;99334.09;2184553;40;20028;-80
2021/07/31 04:32:44;;;;;;;5.10;1.40;;;;;;;17.95;57.24;99340.13;2185639;40;20198;-81
2021/07/31 04:34:16;;;;;;;4.20;1.33;;;;;;;17.95;57.38;99332.81;2183081;40;20470;-80
2021/07/31 04:35:47;;;;;;;7.78;1.73;;;;;;;17.94;57.28;99336.56;2186656;40;20054;-79
2021/07/31 04:37:19;;;;;;;7.78;1.55;;;;;;;17.93;57.69;99340.31;2184599;40;20039;-79
2021/07/31 04:38:51;;;;;;;5.93;1.77;;;;;;;17.95;57.25;99345.53;2182735;40;20124;-77
2021/07/31 04:40:23;;;;;;;4.25;1.40;;;;;;;17.97;57.56;99340.75;2179884;40;20463;-79
2021/07/31 04:41:54;;;;;;;7.63;1.90;;;;;;;17.95;57.51;99340.13;2185196;40;20034;-79
2021/07/31 04:43:25;;;;;;;4.45;1.50;;;;;;;17.89;57.56;99344.47;2181964;40;20478;-78
2021/07/31 04:44:57;;;;;;;7.82;1.45;;;;;;;17.90;57.83;99346.16;2180655;40;20035;-80
2021/07/31 04:46:30;;;;;;;5.88;1.40;;;;;;;17.88;57.47;99342.81;2182905;40;20052;-78
2021/07/31 04:48:01;;;;;;;5.07;1.70;;;;;;;17.86;57.74;99337.59;2182246;40;20100;-78
2021/07/31 04:49:53;;;;;;;3.85;1.20;;;;;;;17.86;57.61;99344.91;2180380;40;20703;-79
2021/07/31 04:51:24;;;;;;;6.60;1.33;;;;;;;17.82;58.01;99335.53;2182783;40;20071;-78
2021/07/31 04:52:57;;;;;;;9.43;1.63;;;;;;;17.83;58.03;99351.56;2183289;40;20066;-79
2021/07/31 04:54:32;;;;;;;5.25;1.40;;;;;;;17.84;57.79;99330.75;2183259;40;20039;-78
2021/07/31 04:56:04;;;;;;;8.55;1.98;;;;;;;17.87;57.85;99349.25;2179155;40;20298;-79
2021/07/31 04:57:36;;;;;;;5.38;1.50;;;;;;;17.86;57.99;99344.91;2180297;40;20295;-78
2021/07/31 04:59:08;;;;;;;2.97;1.20;;;;;;;17.88;57.72;99343.63;2178087;40;20089;-78
2021/07/31 05:00:39;;;;;;;7.82;1.48;;;;;;;17.92;57.54;99344.03;2180546;40;20056;-78
2021/07/31 05:02:12;;;;;;;6.38;1.50;;;;;;;17.95;57.35;99342.81;2180292;40;20028;-78
2021/07/31 05:03:44;;;;;;;6.80;1.60;;;;;;;17.93;57.69;99346.56;2180819;40;20047;-79
2021/07/31 05:05:15;;;;;;;4.82;1.30;;;;;;;17.94;57.22;99352.78;2184059;40;20028;-78
2021/07/31 05:06:47;;;;;;;3.25;1.25;;;;;;;17.96;57.15;99345.31;2181755;40;20032;-78
2021/07/31 05:08:20;;;;;;;5.03;1.73;;;;;;;18.01;57.15;99356.34;2183018;40;20074;-78
2021/07/31 05:09:54;;;;;;;5.25;1.27;;;;;;;18.04;56.91;99361.34;2179247;40;20329;-78
2021/07/31 05:11:25;;;;;;;6.70;1.50;;;;;;;18.03;56.89;99348.84;2182696;40;20143;-79
2021/07/31 05:12:57;;;;;;;7.65;1.67;;;;;;;18.04;56.86;99349.69;2181604;40;20047;-78
2021/07/31 05:14:29;;;;;;;4.15;1.50;;;;;;;18.06;56.85;99358.41;2185277;40;20428;-79
2021/07/31 05:16:01;;;;;;;5.35;1.35;;;;;;;18.06;56.80;99358.41;2186305;40;20027;-79
2021/07/31 05:17:35;;;;;;;5.68;1.20;;;;;;;18.09;56.97;99349.88;2187854;40;20023;-79
2021/07/31 05:19:06;;;;;;;10.23;1.98;;;;;;;18.12;56.83;99354.88;2187919;40;20056;-79
2021/07/31 05:20:39;;;;;;;5.25;1.40;;;;;;;18.14;56.81;99358.19;2187149;40;20063;-80
2021/07/31 05:22:12;;;;;;;6.35;1.67;;;;;;;18.17;56.78;99363.16;2189684;40;20048;-80
2021/07/31 05:23:43;;;;;;;5.60;1.42;;;;;;;18.19;56.72;99358.38;2186859;40;20382;-78
2021/07/31 05:25:15;;;;;;;5.80;1.38;;;;;;;18.24;56.89;99358.56;2185364;40;20048;-78
2021/07/31 05:26:47;;;;;;;6.45;1.50;;;;;;;18.31;56.51;99355.03;2186791;40;20062;-79
2021/07/31 05:28:20;;;;;;;4.30;1.35;;;;;;;18.35;56.47;99353.56;2189677;40;20051;-80
2021/07/31 05:29:52;;;;;;;5.38;1.70;;;;;;;18.42;56.51;99362.47;2189223;40;20036;-78
2021/07/31 05:31:24;;;;;;;5.97;1.13;;;;;;;18.48;55.94;99358.94;2187795;40;20054;-78
2021/07/31 05:32:57;;;;;;;6.28;1.48;;;;;;;18.51;56.05;99353.09;2188800;40;20056;-78
2021/07/31 05:34:29;;;;;;;5.35;1.67;;;;;;;18.53;55.74;99364.53;2187731;40;20078;-78
2021/07/31 05:36:08;;;;;;;5.30;1.27;;;;;;;18.50;55.77;99359.56;2189000;40;20034;-78
2021/07/31 05:37:39;;;;;;;7.78;1.50;;;;;;;18.49;55.67;99366.00;2187752;40;20055;-78
2021/07/31 05:39:13;;;;;;;5.43;1.50;;;;;;;18.58;55.55;99368.47;2188681;40;20069;-78
2021/07/31 05:40:45;;;;;;;5.20;1.80;;;;;;;18.61;55.73;99363.47;2188848;40;20058;-78
2021/07/31 05:42:16;;;;;;;9.00;2.60;;;;;;;18.67;55.18;99369.91;2188380;40;20331;-79
2021/07/31 05:43:49;;;;;;;4.47;1.25;;;;;;;18.74;55.19;99364.47;2187918;40;20424;-80
2021/07/31 05:45:21;;;;;;;3.55;1.15;;;;;;;18.72;54.83;99367.38;2185918;40;101198;-80
2021/07/31 05:46:52;;;;;;;4.63;1.50;;;;;;;18.79;55.20;99370.06;2187831;40;20164;-80
2021/07/31 05:48:25;;;;;;;6.72;1.30;;;;;;;18.79;54.91;99373.59;2190663;40;20074;-79
2021/07/31 05:49:58;;;;;;;5.82;1.50;;;;;;;18.86;55.13;99371.69;2190819;40;20055;-80
2021/07/31 05:51:30;;;;;;;6.05;1.50;;;;;;;18.85;54.55;99370.03;2189288;40;20062;-80
2021/07/31 05:53:02;;;;;;;5.43;1.58;;;;;;;18.84;54.73;99373.78;2186685;40;20036;-78
2021/07/31 05:54:35;;;;;;;8.88;1.30;;;;;;;18.90;54.31;99368.53;2189502;40;20043;-79
2021/07/31 05:56:08;;;;;;;4.15;1.10;;;;;;;18.89;54.41;99369.59;2188161;40;20055;-78
2021/07/31 05:57:39;;;;;;;7.07;1.67;;;;;;;18.88;54.28;99379.59;2188035;40;20462;-79
2021/07/31 05:59:10;;;;;;;8.05;1.67;;;;;;;18.85;54.37;99378.16;2189515;40;20092;-79
2021/07/31 06:00:43;;;;;;;5.35;1.35;;;;;;;18.85;54.16;99370.03;2189336;40;20384;-80
2021/07/31 06:02:15;;;;;;;6.20;1.30;;;;;;;18.88;54.30;99374.19;2191213;40;20039;-79
2021/07/31 06:03:47;;;;;;;8.80;1.33;;;;;;;18.88;54.02;99378.78;2188154;40;20066;-79
2021/07/31 06:05:19;;;;;;;5.68;1.48;;;;;;;18.92;54.27;99379.97;2186386;40;20039;-78
2021/07/31 06:06:51;;;;;;;5.30;1.45;;;;;;;18.99;54.09;99380.81;2189498;40;20055;-80
2021/07/31 06:08:23;;;;;;;4.10;1.20;;;;;;;19.05;53.96;99379.97;2187287;40;20356;-79
2021/07/31 06:09:54;;;;;;;5.15;1.42;;;;;;;19.12;53.54;99380.75;2189669;40;20058;-81
2021/07/31 06:11:27;;;;;;;5.22;1.52;;;;;;;19.20;53.51;99381.53;2189679;40;20039;-78
2021/07/31 06:12:58;;;;;;;4.50;1.30;;;;;;;19.21;53.74;99380.50;2184235;40;20078;-78
2021/07/31 06:14:33;;;;;;;9.63;1.60;;;;;;;19.20;53.40;99376.13;2186224;40;20059;-79
2021/07/31 06:16:09;;;;;;;6.93;1.55;;;;;;;19.18;53.33;99379.88;2189579;40;20039;-79
2021/07/31 06:17:41;;;;;;;5.82;1.27;;;;;;;19.16;53.36;99381.13;2187620;40;20055;-79
2021/07/31 06:19:13;;;;;;;2.88;1.10;;;;;;;19.14;53.40;99383.22;2186973;40;20063;-79
2021/07/31 06:20:47;;;;;;;5.43;1.40;;;;;;;19.17;53.38;99393.63;2185347;40;20063;-79
2021/07/31 06:22:19;;;;;;;4.10;1.27;;;;;;;19.18;53.43;99374.44;2187469;40;20048;-80
2021/07/31 06:23:51;;;;;;;4.30;1.40;;;;;;;19.18;53.13;99382.56;2187770;40;20362;-79
2021/07/31 06:25:23;;;;;;;4.97;1.45;;;;;;;19.19;53.41;99375.28;2189127;40;20051;-79
2021/07/31 06:26:54;;;;;;;4.15;1.23;;;;;;;19.25;53.13;99379.03;2185169;40;20404;-79
2021/07/31 06:28:26;;;;;;;6.22;1.77;;;;;;;19.30;53.28;99379.19;2186576;40;20177;-79
2021/07/31 06:29:58;;;;;;;7.15;1.52;;;;;;;19.32;52.20;99377.91;2185446;40;20035;-79
2021/07/31 06:31:31;;;;;;;4.75;1.23;;;;;;;19.40;51.97;99376.81;2188444;40;20062;-79
2021/07/31 06:33:02;;;;;;;4.85;1.30;;;;;;;19.48;51.43;99368.41;2186903;40;20446;-80
2021/07/31 06:34:34;;;;;;;5.22;1.60;;;;;;;19.56;51.11;99370.03;2187319;40;20281;-79
2021/07/31 06:36:06;;;;;;;5.32;1.00;;;;;;;19.60;51.58;99373.13;2184572;40;20320;-79
2021/07/31 06:37:38;;;;;;;6.25;1.45;;;;;;;19.58;51.65;99367.09;2186780;40;20077;-80
2021/07/31 06:39:09;;;;;;;6.15;1.70;;;;;;;19.60;51.20;99371.25;2189862;40;20054;-78
2021/07/31 06:40:42;;;;;;;4.45;1.20;;;;;;;19.66;51.22;99374.94;2187519;40;20051;-79
2021/07/31 06:42:14;;;;;;;6.30;1.30;;;;;;;19.66;50.80;99366.81;2186158;40;20339;-80
2021/07/31 06:43:45;;;;;;;5.40;1.65;;;;;;;19.62;50.59;99368.34;2188992;40;20047;-80
2021/07/31 06:45:17;;;;;;;5.47;1.42;;;;;;;19.63;50.52;99367.28;2189370;40;20078;-80
2021/07/31 06:46:49;;;;;;;4.63;1.42;;;;;;;19.61;50.21;99369.38;2190051;40;20032;-79
2021/07/31 06:48:19;;;;;;;6.75;1.40;;;;;;;19.59;50.27;99368.75;2187717;40;20503;-79
2021/07/31 06:52:21;;;;;;;5.03;1.20;;;;;;;19.73;50.10;99374.91;2176436;40;20065;-80
2021/07/31 06:53:52;;;;;;;5.05;1.50;;;;;;;19.79;50.10;99364.00;2185888;40;20427;-84
2021/07/31 06:55:24;;;;;;;5.80;1.75;;;;;;;19.79;50.26;99372.16;2196867;40;20047;-87
2021/07/31 06:56:56;;;;;;;7.50;1.58;;;;;;;19.82;49.79;99368.16;2191695;40;20035;-88
2021/07/31 06:58:28;;;;;;;4.00;0.95;;;;;;;19.78;49.46;99381.31;2191488;40;20031;-87
2021/07/31 06:59:59;;;;;;;4.00;1.40;;;;;;;19.87;49.45;99375.66;2191436;40;20027;-84
2021/07/31 07:01:32;;;;;;;4.18;1.50;;;;;;;19.88;49.09;99371.91;2190691;40;20242;-87
2021/07/31 07:03:04;;;;;;;4.53;1.63;;;;;;;19.90;49.16;99372.50;2191255;40;20048;-87
2021/07/31 07:04:36;;;;;;;5.75;1.40;;;;;;;19.96;49.22;99371.59;2188626;40;20039;-87
2021/07/31 07:06:09;;;;;;;4.60;1.35;;;;;;;20.02;49.31;99373.44;2196409;40;20039;-86
2021/07/31 07:07:41;;;;;;;4.95;1.27;;;;;;;19.99;49.79;99373.88;2197104;40;20031;-87
2021/07/31 07:09:13;;;;;;;4.88;1.58;;;;;;;19.97;50.02;99375.16;2197731;40;20035;-88
2021/07/31 07:10:44;;;;;;;7.55;1.80;;;;;;;19.99;50.21;99376.59;2192281;40;23058;-87
2021/07/31 07:12:16;;;;;;;4.75;1.25;;;;;;;20.08;49.99;99382.53;2189665;40;20044;-87
2021/07/31 07:13:46;;;;;;;8.23;1.42;;;;;;;20.12;49.84;99378.34;2191261;40;20675;-84
2021/07/31 07:15:18;;;;;;;4.45;1.15;;;;;;;20.17;49.55;99374.97;2193282;40;20034;-83
2021/07/31 07:16:50;;;;;;;5.30;2.05;;;;;;;20.24;49.14;99376.56;2186491;40;20040;-83
2021/07/31 07:18:23;;;;;;;4.38;1.67;;;;;;;20.27;49.03;99378.00;2186580;40;20047;-83
2021/07/31 07:19:55;;;;;;;4.78;1.63;;;;;;;20.31;49.01;99379.19;2186783;40;20031;-84
2021/07/31 07:21:28;;;;;;;7.45;2.47;;;;;;;20.37;48.91;99378.31;2190536;40;20036;-83
2021/07/31 07:23:00;;;;;;;6.93;1.65;;;;;;;20.39;48.35;99369.91;2188141;40;20039;-83
2021/07/31 07:24:34;;;;;;;8.80;1.20;;;;;;;20.46;48.39;99369.84;2188233;40;20039;-89
2021/07/31 07:26:19;;;;;;;6.55;1.70;;;;;;;20.43;48.34;99368.44;2194019;40;20032;-85
2021/07/31 07:27:51;;;;;;;6.93;1.63;;;;;;;20.37;48.36;99359.31;2190541;40;20447;-86
2021/07/31 07:29:22;;;;;;;5.38;1.40;;;;;;;20.36;48.03;99370.38;2189287;40;20032;-86
2021/07/31 07:30:53;;;;;;;4.80;1.42;;;;;;;20.38;47.72;99369.09;2190349;40;20043;-86
2021/07/31 07:32:25;;;;;;;3.08;1.00;;;;;;;20.51;47.77;99370.84;2188803;40;20024;-86
2021/07/31 07:34:00;;;;;;;7.38;1.67;;;;;;;20.63;47.38;99364.66;2188565;40;20043;-84
2021/07/31 07:35:31;;;;;;;8.55;1.40;;;;;;;20.65;47.32;99366.06;2193803;40;20083;-84
2021/07/31 07:37:05;;;;;;;5.78;1.70;;;;;;;20.71;47.25;99367.88;2195001;40;20457;-84
2021/07/31 07:38:35;;;;;;;4.47;1.92;;;;;;;20.71;47.07;99370.59;2191074;40;20043;-86
2021/07/31 07:40:08;;;;;;;4.07;1.50;;;;;;;20.72;47.12;99366.81;2190197;40;20032;-85
2021/07/31 07:41:40;;;;;;;5.57;1.60;;;;;;;20.73;46.97;99363.06;2188206;40;20047;-87
2021/07/31 07:43:13;;;;;;;5.65;1.95;;;;;;;20.80;46.78;99356.72;2187956;40;20032;-86
2021/07/31 07:44:44;;;;;;;7.78;1.40;;;;;;;20.81;46.49;99358.38;2191990;40;20024;-85
2021/07/31 07:46:18;;;;;;;4.72;1.42;;;;;;;20.86;46.34;99355.81;2186992;40;20048;-81
2021/07/31 07:47:49;;;;;;;4.45;1.08;;;;;;;20.91;46.09;99358.66;2188560;40;20313;-82